Main page
METAR-TAF:

METAR-TAF

Airports :

Jerez Airport

Jerez de la Frontera, Spain

latitude: 36-45N, longitude: 006-04W, elevation: 27 m

Current weather observation

The report was made 18 minutes ago, at 10:00 UTC
Wind 3 kt from the South, varying between East/Southeast and West
Temperature 24°C
Humidity 61%
Pressure 1018 hPa
Visibility 10 km or more
Overcast at a height of 3000 ft

METAR: LEJR 161000Z 18003KT 120V260 9999 OVC030 24/16 Q1018

Time: 12:18 (10:18 UTC)

Forecast

The report was made 5 hours and 18 minutes ago, at 05:00 UTC
Forecast valid from 16 at 06 UTC to 17 at 06 UTC
Wind 5 kt from the Southeast
Visibility 10 km or more
Broken clouds at a height of 2500 ft
Becoming
from 16 at 12 UTC to 16 at 14 UTC
Wind 10 kt from the Southwest
Becoming
from 16 at 19 UTC to 16 at 22 UTC
Wind 3 kt from variable directions

TAF: LEJR 160500Z 1606/1706 14005KT 9999 BKN025 TX31/1614Z TN18/1705Z BECMG 1612/1614 23010KT BECMG 1619/1622 VRB03KT

Weather observations and forecasts of more than 4000 airports (METAR and TAF reports).

The available stations are represented by yellow and red dots on the map.

Hover mouse over dot to see the name of the station.

Then click to see weather observations and forecasts.

To change the map : click on the green buttons with a black cross to zoom in, on the green button with a dash to zoom out, or on the green arrows for adjacent maps.


METAR-TAF: